sensor_id;sensor_type;location;lat;lon;timestamp;P1;durP1;ratioP1;P2;durP2;ratioP2
54235;SDS011;40151;43.606;1.472;2023-02-28T00:00:06;3.72;;;1.58;;
54235;SDS011;40151;43.606;1.472;2023-02-28T00:02:39;3.25;;;1.60;;
54235;SDS011;40151;43.606;1.472;2023-02-28T00:05:06;4.53;;;1.60;;
54235;SDS011;40151;43.606;1.472;2023-02-28T00:07:34;3.08;;;1.80;;
54235;SDS011;40151;43.606;1.472;2023-02-28T00:10:00;5.20;;;2.03;;
54235;SDS011;40151;43.606;1.472;2023-02-28T00:12:26;4.78;;;2.42;;
54235;SDS011;40151;43.606;1.472;2023-02-28T00:14:52;5.53;;;2.38;;
54235;SDS011;40151;43.606;1.472;2023-02-28T00:17:19;7.68;;;2.45;;
54235;SDS011;40151;43.606;1.472;2023-02-28T00:19:49;6.53;;;2.55;;
54235;SDS011;40151;43.606;1.472;2023-02-28T00:22:19;4.03;;;1.95;;
54235;SDS011;40151;43.606;1.472;2023-02-28T00:24:46;5.68;;;1.88;;
54235;SDS011;40151;43.606;1.472;2023-02-28T00:27:12;5.72;;;2.10;;
54235;SDS011;40151;43.606;1.472;2023-02-28T00:29:39;4.78;;;1.80;;
54235;SDS011;40151;43.606;1.472;2023-02-28T00:32:04;3.35;;;1.90;;
54235;SDS011;40151;43.606;1.472;2023-02-28T00:34:31;5.13;;;1.98;;
54235;SDS011;40151;43.606;1.472;2023-02-28T00:36:56;3.17;;;1.80;;
54235;SDS011;40151;43.606;1.472;2023-02-28T00:39:21;3.15;;;1.63;;
54235;SDS011;40151;43.606;1.472;2023-02-28T00:41:47;5.05;;;1.95;;
54235;SDS011;40151;43.606;1.472;2023-02-28T00:44:12;3.88;;;1.80;;
54235;SDS011;40151;43.606;1.472;2023-02-28T00:46:38;4.30;;;2.10;;
54235;SDS011;40151;43.606;1.472;2023-02-28T00:49:03;6.38;;;1.90;;
54235;SDS011;40151;43.606;1.472;2023-02-28T00:51:29;3.08;;;1.50;;
54235;SDS011;40151;43.606;1.472;2023-02-28T00:53:54;4.40;;;2.05;;
54235;SDS011;40151;43.606;1.472;2023-02-28T00:56:20;5.00;;;1.88;;
54235;SDS011;40151;43.606;1.472;2023-02-28T00:58:45;5.57;;;2.10;;
54235;SDS011;40151;43.606;1.472;2023-02-28T01:01:10;2.97;;;1.63;;
54235;SDS011;40151;43.606;1.472;2023-02-28T01:03:36;2.88;;;1.50;;
54235;SDS011;40151;43.606;1.472;2023-02-28T01:06:02;4.00;;;2.00;;
54235;SDS011;40151;43.606;1.472;2023-02-28T01:08:27;3.40;;;1.80;;
54235;SDS011;40151;43.606;1.472;2023-02-28T01:10:53;3.70;;;1.60;;
54235;SDS011;40151;43.606;1.472;2023-02-28T01:13:18;3.10;;;1.80;;
54235;SDS011;40151;43.606;1.472;2023-02-28T01:15:54;3.58;;;1.60;;
54235;SDS011;40151;43.606;1.472;2023-02-28T01:20:47;4.05;;;1.80;;
54235;SDS011;40151;43.606;1.472;2023-02-28T01:23:13;4.30;;;1.70;;
54235;SDS011;40151;43.606;1.472;2023-02-28T01:25:38;4.22;;;1.90;;
54235;SDS011;40151;43.606;1.472;2023-02-28T01:28:04;2.83;;;1.73;;
54235;SDS011;40151;43.606;1.472;2023-02-28T01:30:31;3.15;;;1.40;;
54235;SDS011;40151;43.606;1.472;2023-02-28T01:32:57;3.25;;;1.88;;
54235;SDS011;40151;43.606;1.472;2023-02-28T01:35:22;4.13;;;1.80;;
54235;SDS011;40151;43.606;1.472;2023-02-28T01:37:48;3.75;;;1.80;;
54235;SDS011;40151;43.606;1.472;2023-02-28T01:40:13;4.05;;;1.73;;
54235;SDS011;40151;43.606;1.472;2023-02-28T01:42:39;3.95;;;1.90;;
54235;SDS011;40151;43.606;1.472;2023-02-28T01:45:16;3.38;;;1.88;;
54235;SDS011;40151;43.606;1.472;2023-02-28T01:47:43;3.33;;;1.60;;
54235;SDS011;40151;43.606;1.472;2023-02-28T01:50:14;3.55;;;1.73;;
54235;SDS011;40151;43.606;1.472;2023-02-28T01:52:45;2.75;;;1.50;;
54235;SDS011;40151;43.606;1.472;2023-02-28T01:55:14;3.08;;;1.95;;
54235;SDS011;40151;43.606;1.472;2023-02-28T01:57:51;3.47;;;1.75;;
54235;SDS011;40151;43.606;1.472;2023-02-28T02:00:20;2.85;;;1.80;;
54235;SDS011;40151;43.606;1.472;2023-02-28T02:02:50;3.30;;;1.90;;
54235;SDS011;40151;43.606;1.472;2023-02-28T02:05:20;4.18;;;1.67;;
54235;SDS011;40151;43.606;1.472;2023-02-28T02:07:47;3.08;;;1.83;;
54235;SDS011;40151;43.606;1.472;2023-02-28T02:15:32;4.20;;;2.10;;
54235;SDS011;40151;43.606;1.472;2023-02-28T02:18:26;3.58;;;1.75;;
54235;SDS011;40151;43.606;1.472;2023-02-28T02:35:07;3.25;;;1.98;;
54235;SDS011;40151;43.606;1.472;2023-02-28T02:40:27;4.30;;;2.20;;
54235;SDS011;40151;43.606;1.472;2023-02-28T02:45:45;3.00;;;1.92;;
54235;SDS011;40151;43.606;1.472;2023-02-28T02:48:18;4.05;;;2.03;;
54235;SDS011;40151;43.606;1.472;2023-02-28T02:50:49;4.10;;;2.03;;
54235;SDS011;40151;43.606;1.472;2023-02-28T02:53:21;3.38;;;2.00;;
54235;SDS011;40151;43.606;1.472;2023-02-28T02:55:52;2.97;;;1.90;;
54235;SDS011;40151;43.606;1.472;2023-02-28T02:58:20;3.30;;;1.90;;
54235;SDS011;40151;43.606;1.472;2023-02-28T03:00:52;3.92;;;2.13;;
54235;SDS011;40151;43.606;1.472;2023-02-28T03:03:21;4.45;;;2.53;;
54235;SDS011;40151;43.606;1.472;2023-02-28T03:05:53;3.92;;;2.17;;
54235;SDS011;40151;43.606;1.472;2023-02-28T03:08:21;3.40;;;2.25;;
54235;SDS011;40151;43.606;1.472;2023-02-28T03:10:48;5.85;;;2.33;;
54235;SDS011;40151;43.606;1.472;2023-02-28T03:13:20;3.55;;;2.28;;
54235;SDS011;40151;43.606;1.472;2023-02-28T03:27:12;3.40;;;2.10;;
54235;SDS011;40151;43.606;1.472;2023-02-28T03:29:47;3.33;;;2.10;;
54235;SDS011;40151;43.606;1.472;2023-02-28T03:32:40;3.92;;;2.38;;
54235;SDS011;40151;43.606;1.472;2023-02-28T03:35:20;4.53;;;2.03;;
54235;SDS011;40151;43.606;1.472;2023-02-28T03:38:00;3.47;;;2.08;;
54235;SDS011;40151;43.606;1.472;2023-02-28T03:40:33;4.57;;;2.20;;
54235;SDS011;40151;43.606;1.472;2023-02-28T03:43:03;4.53;;;2.38;;
54235;SDS011;40151;43.606;1.472;2023-02-28T03:53:15;5.25;;;2.03;;
54235;SDS011;40151;43.606;1.472;2023-02-28T03:55:56;3.78;;;2.35;;
54235;SDS011;40151;43.606;1.472;2023-02-28T04:01:35;3.47;;;1.90;;
54235;SDS011;40151;43.606;1.472;2023-02-28T04:03:45;3.80;;;2.30;;
54235;SDS011;40151;43.606;1.472;2023-02-28T04:06:15;4.22;;;2.63;;
54235;SDS011;40151;43.606;1.472;2023-02-28T04:08:43;5.53;;;2.83;;
54235;SDS011;40151;43.606;1.472;2023-02-28T04:11:29;4.40;;;2.72;;
54235;SDS011;40151;43.606;1.472;2023-02-28T04:13:59;3.95;;;2.40;;
54235;SDS011;40151;43.606;1.472;2023-02-28T04:16:25;3.60;;;2.30;;
54235;SDS011;40151;43.606;1.472;2023-02-28T04:18:50;4.03;;;2.55;;
54235;SDS011;40151;43.606;1.472;2023-02-28T04:21:16;4.50;;;2.17;;
54235;SDS011;40151;43.606;1.472;2023-02-28T04:23:45;5.00;;;2.72;;
54235;SDS011;40151;43.606;1.472;2023-02-28T04:26:11;4.55;;;2.45;;
54235;SDS011;40151;43.606;1.472;2023-02-28T04:28:37;4.20;;;2.78;;
54235;SDS011;40151;43.606;1.472;2023-02-28T04:31:03;6.72;;;3.00;;
54235;SDS011;40151;43.606;1.472;2023-02-28T04:33:30;4.47;;;2.90;;
54235;SDS011;40151;43.606;1.472;2023-02-28T04:38:27;4.97;;;2.67;;
54235;SDS011;40151;43.606;1.472;2023-02-28T04:40:53;5.40;;;2.90;;
54235;SDS011;40151;43.606;1.472;2023-02-28T04:43:22;4.72;;;3.00;;
54235;SDS011;40151;43.606;1.472;2023-02-28T04:45:47;4.00;;;2.63;;
54235;SDS011;40151;43.606;1.472;2023-02-28T04:48:12;4.85;;;2.88;;
54235;SDS011;40151;43.606;1.472;2023-02-28T04:50:38;6.22;;;3.38;;
54235;SDS011;40151;43.606;1.472;2023-02-28T04:53:03;4.35;;;2.80;;
54235;SDS011;40151;43.606;1.472;2023-02-28T04:55:29;5.53;;;2.80;;
54235;SDS011;40151;43.606;1.472;2023-02-28T04:57:54;3.80;;;2.70;;
54235;SDS011;40151;43.606;1.472;2023-02-28T05:00:20;4.68;;;3.28;;
54235;SDS011;40151;43.606;1.472;2023-02-28T05:02:45;6.43;;;3.10;;
54235;SDS011;40151;43.606;1.472;2023-02-28T05:05:11;3.92;;;2.60;;
54235;SDS011;40151;43.606;1.472;2023-02-28T05:07:36;4.57;;;3.03;;
54235;SDS011;40151;43.606;1.472;2023-02-28T05:10:03;4.70;;;3.20;;
54235;SDS011;40151;43.606;1.472;2023-02-28T05:12:28;4.15;;;2.83;;
54235;SDS011;40151;43.606;1.472;2023-02-28T05:14:54;4.15;;;2.80;;
54235;SDS011;40151;43.606;1.472;2023-02-28T05:17:19;4.50;;;2.83;;
54235;SDS011;40151;43.606;1.472;2023-02-28T05:19:45;3.97;;;2.83;;
54235;SDS011;40151;43.606;1.472;2023-02-28T05:22:14;6.13;;;3.22;;
54235;SDS011;40151;43.606;1.472;2023-02-28T05:24:43;4.88;;;2.95;;
54235;SDS011;40151;43.606;1.472;2023-02-28T05:27:08;5.00;;;3.25;;
54235;SDS011;40151;43.606;1.472;2023-02-28T05:29:34;4.68;;;3.10;;
54235;SDS011;40151;43.606;1.472;2023-02-28T05:32:06;4.57;;;3.13;;
54235;SDS011;40151;43.606;1.472;2023-02-28T05:34:36;5.47;;;3.50;;
54235;SDS011;40151;43.606;1.472;2023-02-28T05:37:05;5.40;;;3.33;;
54235;SDS011;40151;43.606;1.472;2023-02-28T05:39:31;4.88;;;3.30;;
54235;SDS011;40151;43.606;1.472;2023-02-28T05:41:57;5.00;;;3.38;;
54235;SDS011;40151;43.606;1.472;2023-02-28T05:44:24;5.35;;;3.60;;
54235;SDS011;40151;43.606;1.472;2023-02-28T05:46:49;5.43;;;3.35;;
54235;SDS011;40151;43.606;1.472;2023-02-28T05:49:16;4.63;;;3.00;;
54235;SDS011;40151;43.606;1.472;2023-02-28T05:51:42;5.07;;;3.22;;
54235;SDS011;40151;43.606;1.472;2023-02-28T05:54:07;4.20;;;2.78;;
54235;SDS011;40151;43.606;1.472;2023-02-28T05:56:33;6.60;;;3.55;;
54235;SDS011;40151;43.606;1.472;2023-02-28T05:59:04;5.30;;;3.10;;
54235;SDS011;40151;43.606;1.472;2023-02-28T06:04:04;4.70;;;3.00;;
54235;SDS011;40151;43.606;1.472;2023-02-28T06:06:31;4.70;;;3.05;;
54235;SDS011;40151;43.606;1.472;2023-02-28T06:08:59;5.28;;;3.30;;
54235;SDS011;40151;43.606;1.472;2023-02-28T06:11:26;5.40;;;3.30;;
54235;SDS011;40151;43.606;1.472;2023-02-28T06:13:58;4.90;;;3.00;;
54235;SDS011;40151;43.606;1.472;2023-02-28T06:16:25;5.45;;;3.35;;
54235;SDS011;40151;43.606;1.472;2023-02-28T06:18:52;5.28;;;3.50;;
54235;SDS011;40151;43.606;1.472;2023-02-28T06:21:21;4.85;;;3.33;;
54235;SDS011;40151;43.606;1.472;2023-02-28T06:23:47;4.60;;;2.83;;
54235;SDS011;40151;43.606;1.472;2023-02-28T06:26:12;4.68;;;3.20;;
54235;SDS011;40151;43.606;1.472;2023-02-28T06:28:38;4.78;;;3.30;;
54235;SDS011;40151;43.606;1.472;2023-02-28T06:31:10;5.75;;;3.38;;
54235;SDS011;40151;43.606;1.472;2023-02-28T06:33:37;5.53;;;3.47;;
54235;SDS011;40151;43.606;1.472;2023-02-28T06:36:03;4.60;;;3.15;;
54235;SDS011;40151;43.606;1.472;2023-02-28T06:38:29;4.28;;;2.95;;
54235;SDS011;40151;43.606;1.472;2023-02-28T06:40:56;5.38;;;3.05;;
54235;SDS011;40151;43.606;1.472;2023-02-28T06:43:22;5.60;;;3.20;;
54235;SDS011;40151;43.606;1.472;2023-02-28T06:45:49;6.22;;;3.10;;
54235;SDS011;40151;43.606;1.472;2023-02-28T06:48:14;5.38;;;3.55;;
54235;SDS011;40151;43.606;1.472;2023-02-28T06:50:40;5.90;;;3.63;;
54235;SDS011;40151;43.606;1.472;2023-02-28T06:53:05;5.45;;;3.72;;
54235;SDS011;40151;43.606;1.472;2023-02-28T06:55:30;5.45;;;3.40;;
54235;SDS011;40151;43.606;1.472;2023-02-28T06:57:56;4.00;;;2.70;;
54235;SDS011;40151;43.606;1.472;2023-02-28T07:00:22;5.95;;;4.35;;
54235;SDS011;40151;43.606;1.472;2023-02-28T07:02:49;5.00;;;3.25;;
54235;SDS011;40151;43.606;1.472;2023-02-28T07:05:15;5.72;;;3.50;;
54235;SDS011;40151;43.606;1.472;2023-02-28T07:07:40;4.85;;;3.40;;
54235;SDS011;40151;43.606;1.472;2023-02-28T07:10:09;5.75;;;3.63;;
54235;SDS011;40151;43.606;1.472;2023-02-28T07:12:36;5.13;;;3.58;;
54235;SDS011;40151;43.606;1.472;2023-02-28T07:15:02;5.30;;;3.38;;
54235;SDS011;40151;43.606;1.472;2023-02-28T07:17:28;7.78;;;3.42;;
54235;SDS011;40151;43.606;1.472;2023-02-28T07:19:53;5.40;;;3.38;;
54235;SDS011;40151;43.606;1.472;2023-02-28T07:22:19;7.35;;;3.88;;
54235;SDS011;40151;43.606;1.472;2023-02-28T07:24:44;4.68;;;3.20;;
54235;SDS011;40151;43.606;1.472;2023-02-28T07:27:10;4.93;;;3.38;;
54235;SDS011;40151;43.606;1.472;2023-02-28T07:29:35;5.38;;;3.38;;
54235;SDS011;40151;43.606;1.472;2023-02-28T07:32:01;5.97;;;3.70;;
54235;SDS011;40151;43.606;1.472;2023-02-28T07:34:26;5.50;;;3.40;;
54235;SDS011;40151;43.606;1.472;2023-02-28T07:36:52;4.95;;;3.38;;
54235;SDS011;40151;43.606;1.472;2023-02-28T07:39:19;5.00;;;3.20;;
54235;SDS011;40151;43.606;1.472;2023-02-28T07:41:45;5.93;;;3.60;;
54235;SDS011;40151;43.606;1.472;2023-02-28T07:44:11;6.03;;;3.25;;
54235;SDS011;40151;43.606;1.472;2023-02-28T07:46:36;5.43;;;3.53;;
54235;SDS011;40151;43.606;1.472;2023-02-28T07:49:02;5.13;;;3.65;;
54235;SDS011;40151;43.606;1.472;2023-02-28T07:51:28;6.45;;;3.40;;
54235;SDS011;40151;43.606;1.472;2023-02-28T07:53:54;6.50;;;3.63;;
54235;SDS011;40151;43.606;1.472;2023-02-28T07:56:20;5.50;;;3.50;;
54235;SDS011;40151;43.606;1.472;2023-02-28T07:58:45;5.07;;;3.60;;
54235;SDS011;40151;43.606;1.472;2023-02-28T08:01:11;5.80;;;3.10;;
54235;SDS011;40151;43.606;1.472;2023-02-28T08:03:37;8.25;;;3.75;;
54235;SDS011;40151;43.606;1.472;2023-02-28T08:06:04;5.68;;;3.70;;
54235;SDS011;40151;43.606;1.472;2023-02-28T08:08:30;6.03;;;3.88;;
54235;SDS011;40151;43.606;1.472;2023-02-28T08:11:00;6.38;;;4.05;;
54235;SDS011;40151;43.606;1.472;2023-02-28T08:13:27;5.47;;;3.70;;
54235;SDS011;40151;43.606;1.472;2023-02-28T08:15:53;6.53;;;3.58;;
54235;SDS011;40151;43.606;1.472;2023-02-28T08:18:20;5.82;;;3.67;;
54235;SDS011;40151;43.606;1.472;2023-02-28T08:20:46;6.80;;;3.92;;
54235;SDS011;40151;43.606;1.472;2023-02-28T08:23:11;7.65;;;4.40;;
54235;SDS011;40151;43.606;1.472;2023-02-28T08:25:36;6.68;;;3.40;;
54235;SDS011;40151;43.606;1.472;2023-02-28T08:28:11;7.80;;;3.78;;
54235;SDS011;40151;43.606;1.472;2023-02-28T08:30:36;7.30;;;3.67;;
54235;SDS011;40151;43.606;1.472;2023-02-28T08:33:01;7.45;;;3.63;;
54235;SDS011;40151;43.606;1.472;2023-02-28T08:35:27;6.78;;;3.50;;
54235;SDS011;40151;43.606;1.472;2023-02-28T08:37:52;7.07;;;3.80;;
54235;SDS011;40151;43.606;1.472;2023-02-28T08:40:18;6.20;;;3.75;;
54235;SDS011;40151;43.606;1.472;2023-02-28T08:42:46;5.63;;;3.30;;
54235;SDS011;40151;43.606;1.472;2023-02-28T08:45:13;4.85;;;3.40;;
54235;SDS011;40151;43.606;1.472;2023-02-28T08:50:15;5.22;;;3.55;;
54235;SDS011;40151;43.606;1.472;2023-02-28T08:55:16;9.70;;;4.35;;
54235;SDS011;40151;43.606;1.472;2023-02-28T08:57:42;7.22;;;4.43;;
54235;SDS011;40151;43.606;1.472;2023-02-28T09:00:07;8.30;;;4.60;;
54235;SDS011;40151;43.606;1.472;2023-02-28T09:02:33;6.93;;;4.03;;
54235;SDS011;40151;43.606;1.472;2023-02-28T09:04:59;7.78;;;3.92;;
54235;SDS011;40151;43.606;1.472;2023-02-28T09:07:25;6.45;;;4.07;;
54235;SDS011;40151;43.606;1.472;2023-02-28T09:09:50;6.70;;;3.60;;
54235;SDS011;40151;43.606;1.472;2023-02-28T09:12:19;6.10;;;4.03;;
54235;SDS011;40151;43.606;1.472;2023-02-28T09:14:46;6.55;;;3.40;;
54235;SDS011;40151;43.606;1.472;2023-02-28T09:17:11;6.93;;;3.53;;
54235;SDS011;40151;43.606;1.472;2023-02-28T09:19:36;4.68;;;3.20;;
54235;SDS011;40151;43.606;1.472;2023-02-28T09:22:02;6.47;;;3.15;;
54235;SDS011;40151;43.606;1.472;2023-02-28T09:24:27;6.15;;;3.47;;
54235;SDS011;40151;43.606;1.472;2023-02-28T09:26:53;5.97;;;3.30;;
54235;SDS011;40151;43.606;1.472;2023-02-28T09:29:18;6.57;;;3.72;;
54235;SDS011;40151;43.606;1.472;2023-02-28T09:31:43;5.25;;;3.50;;
54235;SDS011;40151;43.606;1.472;2023-02-28T09:34:09;8.18;;;4.60;;
54235;SDS011;40151;43.606;1.472;2023-02-28T09:36:35;7.57;;;3.78;;
54235;SDS011;40151;43.606;1.472;2023-02-28T09:39:02;7.38;;;3.78;;
54235;SDS011;40151;43.606;1.472;2023-02-28T09:41:28;6.07;;;3.70;;
54235;SDS011;40151;43.606;1.472;2023-02-28T09:44:05;7.80;;;4.20;;
54235;SDS011;40151;43.606;1.472;2023-02-28T09:46:37;6.32;;;3.60;;
54235;SDS011;40151;43.606;1.472;2023-02-28T09:49:12;7.05;;;3.85;;
54235;SDS011;40151;43.606;1.472;2023-02-28T09:51:49;5.72;;;2.95;;
54235;SDS011;40151;43.606;1.472;2023-02-28T09:54:17;7.63;;;3.53;;
54235;SDS011;40151;43.606;1.472;2023-02-28T09:59:39;5.72;;;3.15;;
54235;SDS011;40151;43.606;1.472;2023-02-28T10:10:26;7.15;;;3.20;;
54235;SDS011;40151;43.606;1.472;2023-02-28T10:12:58;5.95;;;3.10;;
54235;SDS011;40151;43.606;1.472;2023-02-28T10:15:28;6.35;;;3.15;;
54235;SDS011;40151;43.606;1.472;2023-02-28T10:17:57;7.10;;;3.67;;
54235;SDS011;40151;43.606;1.472;2023-02-28T10:20:27;5.40;;;3.60;;
54235;SDS011;40151;43.606;1.472;2023-02-28T10:23:02;4.70;;;3.35;;
54235;SDS011;40151;43.606;1.472;2023-02-28T10:25:36;6.07;;;3.58;;
54235;SDS011;40151;43.606;1.472;2023-02-28T10:28:12;6.03;;;3.20;;
54235;SDS011;40151;43.606;1.472;2023-02-28T10:30:42;6.07;;;3.60;;
54235;SDS011;40151;43.606;1.472;2023-02-28T10:35:54;6.47;;;3.40;;
54235;SDS011;40151;43.606;1.472;2023-02-28T10:38:33;7.38;;;3.80;;
54235;SDS011;40151;43.606;1.472;2023-02-28T10:41:10;7.10;;;3.25;;
54235;SDS011;40151;43.606;1.472;2023-02-28T10:43:38;14.98;;;8.93;;
54235;SDS011;40151;43.606;1.472;2023-02-28T10:48:34;16.50;;;12.10;;
54235;SDS011;40151;43.606;1.472;2023-02-28T10:51:03;14.85;;;10.05;;
54235;SDS011;40151;43.606;1.472;2023-02-28T10:53:33;12.63;;;9.02;;
54235;SDS011;40151;43.606;1.472;2023-02-28T11:01:41;17.63;;;8.25;;
54235;SDS011;40151;43.606;1.472;2023-02-28T11:06:47;12.85;;;7.18;;
54235;SDS011;40151;43.606;1.472;2023-02-28T11:11:50;15.40;;;7.10;;
54235;SDS011;40151;43.606;1.472;2023-02-28T11:14:21;10.95;;;6.53;;
54235;SDS011;40151;43.606;1.472;2023-02-28T11:16:50;12.57;;;5.90;;
54235;SDS011;40151;43.606;1.472;2023-02-28T11:19:22;14.88;;;6.93;;
54235;SDS011;40151;43.606;1.472;2023-02-28T11:22:00;16.20;;;6.18;;
54235;SDS011;40151;43.606;1.472;2023-02-28T11:24:31;11.65;;;5.95;;
54235;SDS011;40151;43.606;1.472;2023-02-28T11:27:00;9.30;;;5.35;;
54235;SDS011;40151;43.606;1.472;2023-02-28T11:29:27;11.50;;;6.05;;
54235;SDS011;40151;43.606;1.472;2023-02-28T11:32:01;9.68;;;5.15;;
54235;SDS011;40151;43.606;1.472;2023-02-28T11:34:30;8.85;;;5.10;;
54235;SDS011;40151;43.606;1.472;2023-02-28T11:36:56;8.63;;;4.80;;
54235;SDS011;40151;43.606;1.472;2023-02-28T11:39:25;10.40;;;4.57;;
54235;SDS011;40151;43.606;1.472;2023-02-28T11:42:07;11.63;;;4.63;;
54235;SDS011;40151;43.606;1.472;2023-02-28T11:44:48;8.43;;;5.00;;
54235;SDS011;40151;43.606;1.472;2023-02-28T11:47:25;9.65;;;4.38;;
54235;SDS011;40151;43.606;1.472;2023-02-28T11:53:01;8.57;;;4.85;;
54235;SDS011;40151;43.606;1.472;2023-02-28T11:55:36;10.50;;;5.35;;
54235;SDS011;40151;43.606;1.472;2023-02-28T12:00:50;8.60;;;4.85;;
54235;SDS011;40151;43.606;1.472;2023-02-28T12:06:26;7.65;;;4.63;;
54235;SDS011;40151;43.606;1.472;2023-02-28T12:09:04;7.68;;;5.18;;
54235;SDS011;40151;43.606;1.472;2023-02-28T12:19:28;8.27;;;5.22;;
54235;SDS011;40151;43.606;1.472;2023-02-28T12:24:59;8.63;;;5.65;;
54235;SDS011;40151;43.606;1.472;2023-02-28T12:27:46;10.45;;;6.18;;
54235;SDS011;40151;43.606;1.472;2023-02-28T12:30:28;9.18;;;6.63;;
54235;SDS011;40151;43.606;1.472;2023-02-28T12:33:11;9.63;;;5.95;;
54235;SDS011;40151;43.606;1.472;2023-02-28T12:38:25;8.18;;;6.20;;
54235;SDS011;40151;43.606;1.472;2023-02-28T12:43:33;9.23;;;6.25;;
54235;SDS011;40151;43.606;1.472;2023-02-28T12:46:06;9.63;;;6.07;;
54235;SDS011;40151;43.606;1.472;2023-02-28T12:48:42;13.15;;;6.90;;
54235;SDS011;40151;43.606;1.472;2023-02-28T12:51:11;12.18;;;6.90;;
54235;SDS011;40151;43.606;1.472;2023-02-28T12:56:19;10.23;;;5.75;;
54235;SDS011;40151;43.606;1.472;2023-02-28T12:58:51;11.00;;;5.97;;
54235;SDS011;40151;43.606;1.472;2023-02-28T13:04:19;9.50;;;5.57;;
54235;SDS011;40151;43.606;1.472;2023-02-28T13:10:06;7.50;;;4.93;;
54235;SDS011;40151;43.606;1.472;2023-02-28T13:12:32;9.00;;;5.00;;
54235;SDS011;40151;43.606;1.472;2023-02-28T13:17:53;7.72;;;4.60;;
54235;SDS011;40151;43.606;1.472;2023-02-28T13:20:24;7.20;;;4.35;;
54235;SDS011;40151;43.606;1.472;2023-02-28T13:23:00;7.13;;;4.00;;
54235;SDS011;40151;43.606;1.472;2023-02-28T13:27:58;5.90;;;3.72;;
54235;SDS011;40151;43.606;1.472;2023-02-28T13:36:07;8.18;;;3.80;;
54235;SDS011;40151;43.606;1.472;2023-02-28T13:38:48;6.15;;;3.70;;
54235;SDS011;40151;43.606;1.472;2023-02-28T13:44:15;5.80;;;3.45;;
54235;SDS011;40151;43.606;1.472;2023-02-28T13:49:31;5.85;;;3.15;;
54235;SDS011;40151;43.606;1.472;2023-02-28T13:54:37;5.07;;;2.72;;
54235;SDS011;40151;43.606;1.472;2023-02-28T14:05:44;4.75;;;3.00;;
54235;SDS011;40151;43.606;1.472;2023-02-28T14:08:16;5.50;;;3.20;;
54235;SDS011;40151;43.606;1.472;2023-02-28T14:10:49;4.90;;;3.10;;
54235;SDS011;40151;43.606;1.472;2023-02-28T14:15:56;4.97;;;3.08;;
54235;SDS011;40151;43.606;1.472;2023-02-28T14:23:39;4.72;;;3.10;;
54235;SDS011;40151;43.606;1.472;2023-02-28T14:26:18;4.93;;;3.08;;
54235;SDS011;40151;43.606;1.472;2023-02-28T14:31:42;5.38;;;3.03;;
54235;SDS011;40151;43.606;1.472;2023-02-28T14:34:24;4.68;;;3.08;;
54235;SDS011;40151;43.606;1.472;2023-02-28T14:36:52;4.78;;;2.78;;
54235;SDS011;40151;43.606;1.472;2023-02-28T14:39:24;5.25;;;2.70;;
54235;SDS011;40151;43.606;1.472;2023-02-28T14:41:50;4.38;;;2.88;;
54235;SDS011;40151;43.606;1.472;2023-02-28T14:44:23;4.28;;;2.45;;
54235;SDS011;40151;43.606;1.472;2023-02-28T14:46:50;6.45;;;2.95;;
54235;SDS011;40151;43.606;1.472;2023-02-28T14:49:44;3.78;;;2.38;;
54235;SDS011;40151;43.606;1.472;2023-02-28T14:52:20;4.13;;;2.47;;
54235;SDS011;40151;43.606;1.472;2023-02-28T14:54:52;4.82;;;2.50;;
54235;SDS011;40151;43.606;1.472;2023-02-28T14:57:23;6.68;;;2.40;;
54235;SDS011;40151;43.606;1.472;2023-02-28T15:00:00;4.38;;;2.58;;
54235;SDS011;40151;43.606;1.472;2023-02-28T15:02:29;4.57;;;1.95;;
54235;SDS011;40151;43.606;1.472;2023-02-28T15:04:59;6.28;;;2.72;;
54235;SDS011;40151;43.606;1.472;2023-02-28T15:10:17;6.90;;;2.50;;
54235;SDS011;40151;43.606;1.472;2023-02-28T15:12:58;5.53;;;2.08;;
54235;SDS011;40151;43.606;1.472;2023-02-28T15:21:07;4.07;;;2.20;;
54235;SDS011;40151;43.606;1.472;2023-02-28T15:23:42;3.05;;;2.00;;
54235;SDS011;40151;43.606;1.472;2023-02-28T15:26:13;4.57;;;2.00;;
54235;SDS011;40151;43.606;1.472;2023-02-28T15:28:57;4.38;;;2.20;;
54235;SDS011;40151;43.606;1.472;2023-02-28T15:31:29;4.22;;;2.13;;
54235;SDS011;40151;43.606;1.472;2023-02-28T15:34:03;4.00;;;1.80;;
54235;SDS011;40151;43.606;1.472;2023-02-28T15:36:32;4.60;;;2.22;;
54235;SDS011;40151;43.606;1.472;2023-02-28T15:39:02;3.42;;;2.10;;
54235;SDS011;40151;43.606;1.472;2023-02-28T15:41:43;3.85;;;2.10;;
54235;SDS011;40151;43.606;1.472;2023-02-28T15:47:11;10.85;;;2.53;;
54235;SDS011;40151;43.606;1.472;2023-02-28T15:49:47;3.28;;;2.10;;
54235;SDS011;40151;43.606;1.472;2023-02-28T15:52:17;3.45;;;2.00;;
54235;SDS011;40151;43.606;1.472;2023-02-28T15:54:46;4.30;;;2.10;;
54235;SDS011;40151;43.606;1.472;2023-02-28T15:57:20;6.07;;;2.08;;
54235;SDS011;40151;43.606;1.472;2023-02-28T15:59:58;4.68;;;2.28;;
54235;SDS011;40151;43.606;1.472;2023-02-28T16:02:32;4.13;;;2.17;;
54235;SDS011;40151;43.606;1.472;2023-02-28T16:07:31;4.38;;;1.85;;
54235;SDS011;40151;43.606;1.472;2023-02-28T16:09:59;4.40;;;1.90;;
54235;SDS011;40151;43.606;1.472;2023-02-28T16:12:26;3.95;;;2.10;;
54235;SDS011;40151;43.606;1.472;2023-02-28T16:14:54;4.35;;;2.05;;
54235;SDS011;40151;43.606;1.472;2023-02-28T16:17:26;4.93;;;2.15;;
54235;SDS011;40151;43.606;1.472;2023-02-28T16:19:53;4.60;;;2.42;;
54235;SDS011;40151;43.606;1.472;2023-02-28T16:22:19;3.95;;;1.92;;
54235;SDS011;40151;43.606;1.472;2023-02-28T16:24:44;3.90;;;2.00;;
54235;SDS011;40151;43.606;1.472;2023-02-28T16:27:20;4.75;;;2.03;;
54235;SDS011;40151;43.606;1.472;2023-02-28T16:29:51;5.10;;;2.38;;
54235;SDS011;40151;43.606;1.472;2023-02-28T16:32:18;3.55;;;1.95;;
54235;SDS011;40151;43.606;1.472;2023-02-28T16:34:44;3.58;;;2.00;;
54235;SDS011;40151;43.606;1.472;2023-02-28T16:37:11;5.28;;;2.10;;
54235;SDS011;40151;43.606;1.472;2023-02-28T16:39:38;5.32;;;2.20;;
54235;SDS011;40151;43.606;1.472;2023-02-28T16:42:04;4.03;;;2.28;;
54235;SDS011;40151;43.606;1.472;2023-02-28T16:44:31;4.40;;;2.20;;
54235;SDS011;40151;43.606;1.472;2023-02-28T16:47:03;4.30;;;2.30;;
54235;SDS011;40151;43.606;1.472;2023-02-28T16:49:29;4.70;;;2.00;;
54235;SDS011;40151;43.606;1.472;2023-02-28T16:51:55;3.45;;;1.98;;
54235;SDS011;40151;43.606;1.472;2023-02-28T16:54:20;4.28;;;2.13;;
54235;SDS011;40151;43.606;1.472;2023-02-28T16:56:47;3.15;;;2.22;;
54235;SDS011;40151;43.606;1.472;2023-02-28T16:59:21;4.03;;;1.98;;
54235;SDS011;40151;43.606;1.472;2023-02-28T17:01:49;4.47;;;2.03;;
54235;SDS011;40151;43.606;1.472;2023-02-28T17:04:15;4.20;;;2.00;;
54235;SDS011;40151;43.606;1.472;2023-02-28T17:06:41;4.70;;;1.98;;
54235;SDS011;40151;43.606;1.472;2023-02-28T17:09:08;4.07;;;2.15;;
54235;SDS011;40151;43.606;1.472;2023-02-28T17:11:41;4.47;;;2.30;;
54235;SDS011;40151;43.606;1.472;2023-02-28T17:14:07;4.07;;;1.90;;
54235;SDS011;40151;43.606;1.472;2023-02-28T17:16:33;3.92;;;2.08;;
54235;SDS011;40151;43.606;1.472;2023-02-28T17:19:01;4.80;;;2.17;;
54235;SDS011;40151;43.606;1.472;2023-02-28T17:21:31;4.00;;;1.90;;
54235;SDS011;40151;43.606;1.472;2023-02-28T17:23:58;4.28;;;1.95;;
54235;SDS011;40151;43.606;1.472;2023-02-28T17:26:23;5.90;;;2.38;;
54235;SDS011;40151;43.606;1.472;2023-02-28T17:28:53;4.07;;;2.28;;
54235;SDS011;40151;43.606;1.472;2023-02-28T17:31:25;5.25;;;2.53;;
54235;SDS011;40151;43.606;1.472;2023-02-28T17:33:51;5.82;;;2.60;;
54235;SDS011;40151;43.606;1.472;2023-02-28T17:36:23;5.57;;;2.17;;
54235;SDS011;40151;43.606;1.472;2023-02-28T17:38:50;4.63;;;2.28;;
54235;SDS011;40151;43.606;1.472;2023-02-28T17:41:17;5.40;;;2.03;;
54235;SDS011;40151;43.606;1.472;2023-02-28T17:43:42;5.30;;;2.28;;
54235;SDS011;40151;43.606;1.472;2023-02-28T17:46:26;5.03;;;2.28;;
54235;SDS011;40151;43.606;1.472;2023-02-28T17:48:53;5.50;;;2.10;;
54235;SDS011;40151;43.606;1.472;2023-02-28T17:51:20;4.55;;;1.90;;